Walesville, New York
Current Conditions -  °F | °C
As of 12:04 PM on Thursday 27 Nov 2014 (Local Time) from KRME Reporting Station
Light Snow Light Snow  
Wind Chill: 24°   Ceiling: 1500
Heat Index: 29°   Visibility: 1.2mi
Dew Point: 27°   Wind: 5mph
Humidity: 92%   Direction: 260°W
Pressure: 30.02"   Gusts: NA
Location:  43.1203°N, 75.3249°W
Report Text: KRME 271704Z 26004KT 1 1/4SM -SN BR SCT008 OVC015 M02/M03 A3002 RMK AO2 P0000 T10171028
Loading
Personal Weather Stations






























Interactive Weather Map New forecast layout! Learn more

10-Day Weather Forecast

Advertisements
Track Severe Weather on mobile